Time;durP1;ratioP1;P1;durP2;ratioP2;P2;SDS_P1;SDS_P2;PMS_P1;PMS_P2;Temp;Humidity;BMP_temperature;BMP_pressure;BME280_temperature;BME280_humidity;BME280_pressure;Samples;Min_cycle;Max_cycle;Signal;HPM_P1;HPM_P2
2022/04/24 00:00:30;;;;;;;8.43;4.27;;;7.90;1.40;;;8.84;100.00;93416.22;648788;216;31549;-75
2022/04/24 00:03:11;;;;;;;4.72;3.20;;;8.00;1.40;;;8.78;100.00;93417.13;647857;216;31595;-75
2022/04/24 00:05:53;;;;;;;4.77;4.00;;;8.00;1.40;;;8.76;100.00;93415.57;648036;212;31527;-75
2022/04/24 00:08:40;;;;;;;5.80;4.30;;;8.00;1.40;;;8.75;100.00;93401.98;639333;216;31733;-73
2022/04/24 00:11:22;;;;;;;5.00;2.97;;;8.00;1.40;;;8.70;100.00;93378.75;645691;216;31609;-73
2022/04/24 00:14:10;;;;;;;5.50;3.27;;;7.90;1.40;;;8.73;100.00;93370.63;647857;212;31835;-75
2022/04/24 00:16:51;;;;;;;5.57;3.60;;;7.90;1.40;;;8.72;100.00;93372.16;648273;216;31670;-75
2022/04/24 00:19:38;;;;;;;17.60;4.50;;;7.90;1.40;;;8.71;100.00;93368.55;646549;212;32270;-73
2022/04/24 00:22:26;;;;;;;6.80;3.30;;;8.00;1.40;;;8.72;100.00;93365.88;648431;216;31576;-76
2022/04/24 00:25:09;;;;;;;5.00;4.50;;;8.00;1.40;;;8.72;100.00;93372.16;648172;212;31639;-75
2022/04/24 00:27:51;;;;;;;4.15;3.75;;;8.10;1.40;;;8.72;100.00;93377.80;620977;222;32003;-75
2022/04/24 00:30:33;;;;;;;11.65;4.68;;;8.10;1.40;;;8.73;100.00;93370.38;648876;212;31635;-76
2022/04/24 00:35:57;;;;;;;3.80;2.70;;;8.10;1.40;;;8.76;100.00;93358.88;645996;216;31657;-73
2022/04/24 00:38:41;;;;;;;7.30;3.60;;;8.10;1.40;;;8.83;100.00;93356.31;647551;212;31601;-74
2022/04/24 00:41:23;;;;;;;5.30;3.53;;;8.00;1.40;;;8.91;100.00;93357.80;622395;225;31863;-76
2022/04/24 00:44:06;;;;;;;6.90;3.77;;;8.00;1.40;;;8.87;100.00;93363.74;647044;214;31588;-73
2022/04/24 00:47:07;;;;;;;13.67;4.90;;;8.00;1.40;;;8.83;100.00;93358.26;647159;216;31563;-72
2022/04/24 00:49:49;;;;;;;3.97;3.57;;;8.00;1.40;;;8.97;100.00;93354.45;647098;216;31814;-73
2022/04/24 00:52:37;;;;;;;6.50;3.77;;;8.10;1.40;;;9.00;100.00;93344.52;647955;216;31572;-75
2022/04/24 00:55:18;;;;;;;4.70;3.80;;;8.10;1.40;;;9.12;100.00;93335.02;648887;216;31549;-75
2022/04/24 00:58:00;;;;;;;4.50;4.10;;;8.10;1.40;;;9.17;100.00;93331.91;646860;216;32037;-75
2022/04/24 01:00:42;;;;;;;7.30;3.75;;;8.10;1.40;;;9.01;100.00;93341.45;619273;222;32027;-75
2022/04/24 01:03:25;;;;;;;7.13;4.50;;;8.10;1.40;;;9.12;100.00;93334.77;646771;216;31861;-73
2022/04/24 01:06:14;;;;;;;5.10;4.60;;;8.10;1.40;;;9.29;100.00;93326.26;647326;212;31875;-76
2022/04/24 01:09:15;;;;;;;4.70;3.00;;;8.10;1.40;;;9.26;100.00;93320.41;647883;216;31591;-75
2022/04/24 01:12:02;;;;;;;4.67;4.17;;;8.10;1.40;;;9.29;100.00;93323.34;647031;216;31562;-76
2022/04/24 01:14:49;;;;;;;5.17;3.50;;;8.10;1.40;;;9.02;100.00;93334.64;645382;216;31554;-73
2022/04/24 01:17:37;;;;;;;6.97;3.60;;;8.10;1.40;;;8.96;100.00;93343.05;648920;216;31609;-76
2022/04/24 01:20:19;;;;;;;6.00;3.47;;;8.10;1.40;;;9.11;100.00;93325.00;619773;222;31897;-76
2022/04/24 01:23:00;;;;;;;5.67;3.77;;;8.20;1.40;;;9.01;100.00;93332.81;620736;222;31957;-76
2022/04/24 01:25:42;;;;;;;6.40;3.67;;;8.20;1.40;;;8.95;100.00;93320.34;648918;212;31575;-75
2022/04/24 01:28:30;;;;;;;5.40;3.90;;;8.10;1.40;;;9.01;100.00;93322.92;644931;212;32460;-73
2022/04/24 01:31:14;;;;;;;8.05;6.07;;;8.10;1.40;;;8.95;100.00;93325.14;646971;212;31603;-73
2022/04/24 01:35:53;;;;;;;8.13;4.12;;;8.20;1.40;;;8.85;100.00;93318.75;646809;216;31597;-73
2022/04/24 01:38:35;;;;;;;6.17;5.57;;;8.20;1.40;;;8.89;100.00;93309.60;647914;216;31587;-74
2022/04/24 01:41:22;;;;;;;9.30;4.60;;;8.20;1.40;;;8.90;100.00;93306.77;647474;212;31564;-76
2022/04/24 01:44:05;;;;;;;5.13;4.00;;;8.20;1.40;;;9.06;100.00;93319.05;647303;212;31579;-75
2022/04/24 01:46:48;;;;;;;7.33;3.13;;;8.20;1.40;;;8.95;100.00;93308.23;645705;216;32160;-73
2022/04/24 01:49:33;;;;;;;6.28;4.60;;;8.20;1.40;;;9.03;100.00;93312.34;649922;216;31558;-76
2022/04/24 01:52:16;;;;;;;8.95;4.53;;;8.20;1.40;;;9.02;100.00;93312.59;647982;216;31644;-75
2022/04/24 01:55:00;;;;;;;5.80;3.07;;;8.20;1.40;;;9.20;100.00;93311.28;648225;216;31572;-76
2022/04/24 01:57:44;;;;;;;4.18;3.78;;;8.20;1.40;;;9.29;100.00;93308.98;647749;216;42554;-73
2022/04/24 02:00:26;;;;;;;6.90;4.90;;;8.20;1.40;;;9.03;100.00;93301.36;619541;226;31947;-73
2022/04/24 02:03:07;;;;;;;6.67;4.30;;;8.20;1.40;;;8.96;100.00;93296.03;619004;225;31930;-73
2022/04/24 02:05:55;;;;;;;6.23;3.13;;;8.20;1.40;;;9.02;100.00;93299.58;620670;226;31883;-76
2022/04/24 02:08:37;;;;;;;4.25;3.53;;;8.10;1.40;;;8.99;100.00;93295.75;636534;216;31733;-75
2022/04/24 02:11:25;;;;;;;5.63;3.80;;;8.10;1.40;;;9.08;100.00;93295.98;646365;216;31536;-73
2022/04/24 02:16:53;;;;;;;6.63;4.83;;;8.10;1.40;;;9.25;100.00;93316.80;645144;216;31631;-73
2022/04/24 02:19:37;;;;;;;5.27;4.73;;;8.10;1.40;;;9.09;100.00;93314.27;646908;216;31556;-75
2022/04/24 02:22:24;;;;;;;6.30;3.87;;;8.10;1.40;;;8.95;100.00;93323.03;646506;212;31605;-74
2022/04/24 02:25:12;;;;;;;4.67;3.33;;;8.10;1.40;;;9.10;100.00;93312.93;648190;214;31598;-76
2022/04/24 02:27:55;;;;;;;8.00;4.43;;;8.00;1.40;;;9.12;100.00;93310.28;648993;216;31550;-75
2022/04/24 02:30:36;;;;;;;4.00;2.50;;;8.00;1.40;;;9.20;100.00;93303.77;621594;222;31902;-75
2022/04/24 02:35:57;;;;;;;8.02;3.92;;;8.00;1.40;;;9.10;100.00;93311.27;648057;216;31587;-75
2022/04/24 02:38:39;;;;;;;6.00;4.30;;;7.90;1.40;;;9.21;100.00;93298.95;648223;212;31602;-75
2022/04/24 02:41:27;;;;;;;6.80;3.60;;;7.90;1.40;;;9.14;100.00;93309.89;647844;216;31570;-74
2022/04/24 02:44:08;;;;;;;4.00;3.60;;;7.90;1.40;;;9.26;100.00;93308.77;647307;216;31760;-73
2022/04/24 02:46:50;;;;;;;8.50;5.13;;;7.90;1.40;;;9.29;100.00;93313.41;646790;216;31591;-73
2022/04/24 02:49:32;;;;;;;7.45;3.97;;;7.90;1.40;;;9.22;100.00;93302.44;646495;216;31555;-72
2022/04/24 02:52:16;;;;;;;6.43;3.10;;;7.80;1.40;;;9.21;100.00;93300.17;648324;216;31584;-75
2022/04/24 02:54:59;;;;;;;5.00;4.30;;;7.80;1.40;;;9.12;100.00;93298.89;647588;216;31602;-72
2022/04/24 02:57:41;;;;;;;5.50;3.77;;;7.70;1.40;;;9.13;100.00;93320.75;647213;216;31574;-72
2022/04/24 03:00:24;;;;;;;6.80;4.50;;;7.70;1.40;;;9.02;100.00;93324.34;646751;216;31587;-72
2022/04/24 03:03:04;;;;;;;5.77;4.60;;;7.70;1.40;;;9.16;100.00;93321.85;645423;212;31601;-72
2022/04/24 03:05:49;;;;;;;6.87;3.63;;;7.70;1.40;;;9.10;100.00;93347.52;646487;216;31611;-73
2022/04/24 03:08:32;;;;;;;4.20;3.63;;;7.70;1.40;;;9.12;100.00;93364.70;646727;216;31570;-72
2022/04/24 03:11:19;;;;;;;4.10;3.70;;;7.80;1.40;;;8.75;100.00;93428.66;619696;226;32480;-76
2022/04/24 03:14:05;;;;;;;4.90;4.35;;;7.60;1.40;;;8.52;100.00;93458.39;647079;212;31703;-74
2022/04/24 03:16:52;;;;;;;4.20;2.60;;;7.80;1.40;;;8.59;100.00;93481.41;647263;216;31579;-73
2022/04/24 03:19:33;;;;;;;5.10;3.77;;;7.90;1.40;;;8.71;100.00;93476.25;645945;212;31610;-73
2022/04/24 03:22:23;;;;;;;5.10;3.20;;;8.00;1.40;;;8.83;100.00;93447.78;648435;216;31543;-75
2022/04/24 03:25:07;;;;;;;8.50;5.37;;;8.00;1.40;;;8.94;100.00;93458.70;618791;222;32023;-73
2022/04/24 03:27:55;;;;;;;5.57;3.93;;;8.10;1.40;;;9.04;100.00;93457.36;648287;216;31538;-75
2022/04/24 03:30:43;;;;;;;4.17;3.77;;;8.10;1.40;;;9.04;100.00;93449.87;646468;216;31635;-72
2022/04/24 03:35:57;;;;;;;4.43;3.40;;;8.10;1.40;;;9.09;100.00;93448.55;647566;212;31540;-75
2022/04/24 03:38:38;;;;;;;7.80;3.87;;;8.10;1.40;;;9.15;100.00;93439.28;649122;216;32228;-75
2022/04/24 03:41:26;;;;;;;5.43;3.95;;;8.10;1.40;;;9.12;100.00;93432.90;647854;216;31614;-73
2022/04/24 03:44:12;;;;;;;7.00;5.00;;;8.10;1.40;;;9.11;100.00;93434.92;646518;216;31747;-76
2022/04/24 03:46:53;;;;;;;9.43;4.87;;;8.10;1.40;;;9.03;100.00;93431.01;648674;216;31558;-74
2022/04/24 03:49:35;;;;;;;8.18;4.03;;;8.00;1.40;;;8.97;100.00;93424.78;621426;226;32623;-75
2022/04/24 03:52:20;;;;;;;6.82;4.72;;;8.00;1.40;;;8.90;100.00;93434.48;648518;216;31658;-75
2022/04/24 03:55:11;;;;;;;6.40;3.58;;;7.90;1.40;;;8.78;100.00;93437.30;646474;216;31580;-73
2022/04/24 03:57:59;;;;;;;7.07;5.20;;;7.80;1.40;;;8.77;100.00;93436.24;647765;216;31552;-74
2022/04/24 04:00:40;;;;;;;5.60;4.20;;;7.80;1.40;;;8.80;100.00;93437.03;646786;212;31612;-74
2022/04/24 04:03:24;;;;;;;5.30;4.37;;;7.70;1.40;;;8.84;100.00;93436.93;645418;212;31595;-74
2022/04/24 04:06:12;;;;;;;5.27;4.63;;;7.70;1.40;;;8.78;100.00;93440.55;646382;216;31597;-76
2022/04/24 04:08:53;;;;;;;9.00;3.83;;;7.60;1.40;;;8.71;100.00;93428.08;635654;216;31715;-73
2022/04/24 04:11:35;;;;;;;6.18;3.40;;;7.60;1.40;;;8.62;100.00;93431.14;619342;226;31856;-74
2022/04/24 04:14:18;;;;;;;4.77;4.27;;;7.50;1.40;;;8.49;100.00;93436.99;646955;216;31590;-76
2022/04/24 04:16:59;;;;;;;4.63;3.83;;;7.40;1.40;;;8.41;100.00;93437.38;647829;216;31554;-75
2022/04/24 04:19:40;;;;;;;4.50;3.50;;;7.30;1.40;;;8.34;100.00;93434.27;647778;216;31584;-76
2022/04/24 04:22:25;;;;;;;3.70;3.40;;;7.30;1.40;;;8.21;100.00;93438.67;646753;216;31579;-74
2022/04/24 04:25:07;;;;;;;4.43;3.20;;;7.20;1.40;;;8.13;100.00;93442.39;647452;216;31672;-74
2022/04/24 04:27:49;;;;;;;6.80;3.70;;;7.20;1.40;;;8.17;100.00;93443.19;648320;216;32013;-74
2022/04/24 04:30:32;;;;;;;3.10;2.70;;;7.20;1.40;;;8.23;100.00;93448.65;647043;216;32217;-74
2022/04/24 04:35:52;;;;;;;5.40;3.08;;;7.30;1.40;;;8.27;100.00;93453.30;646694;212;31570;-75
2022/04/24 04:38:33;;;;;;;2.70;2.50;;;7.40;1.40;;;8.28;100.00;93459.02;648463;216;31572;-76
2022/04/24 04:41:15;;;;;;;5.70;3.60;;;7.40;1.40;;;8.33;100.00;93473.23;648214;212;31613;-76
2022/04/24 04:43:57;;;;;;;5.23;3.00;;;7.50;1.40;;;8.44;100.00;93485.11;649093;216;33624;-75
2022/04/24 04:46:39;;;;;;;3.30;2.20;;;7.60;1.40;;;8.51;100.00;93489.14;648951;216;31698;-74
2022/04/24 04:49:28;;;;;;;4.30;3.50;;;7.70;1.40;;;8.56;100.00;93494.09;646713;216;31590;-74
2022/04/24 04:52:11;;;;;;;4.47;4.03;;;7.80;1.40;;;8.57;100.00;93510.52;645887;213;31963;-75
2022/04/24 04:54:54;;;;;;;5.43;3.30;;;7.80;1.40;;;8.52;100.00;93507.90;645795;216;31559;-73
2022/04/24 04:57:43;;;;;;;4.73;3.30;;;7.90;1.40;;;8.56;100.00;93513.47;649115;216;31595;-75
2022/04/24 05:00:24;;;;;;;4.43;3.67;;;7.90;1.40;;;8.61;100.00;93517.88;648145;212;31537;-75
2022/04/24 05:03:06;;;;;;;3.83;2.63;;;8.00;1.40;;;8.64;100.00;93530.87;648870;216;31821;-75
2022/04/24 05:05:53;;;;;;;4.75;3.10;;;8.00;1.40;;;8.78;100.00;93536.19;648547;212;31627;-76
2022/04/24 05:08:38;;;;;;;4.10;3.00;;;8.20;1.40;;;8.87;100.00;93539.41;648055;212;31628;-74
2022/04/24 05:11:20;;;;;;;5.97;3.17;;;8.10;1.40;;;8.94;100.00;93543.13;647491;216;31626;-75
2022/04/24 05:14:05;;;;;;;4.23;3.33;;;8.20;1.40;;;8.97;100.00;93548.05;620785;222;31435;-76
2022/04/24 05:16:47;;;;;;;3.90;2.90;;;8.20;1.40;;;8.95;100.00;93550.23;620902;222;31953;-75
2022/04/24 05:19:28;;;;;;;6.13;3.50;;;8.20;1.40;;;8.95;100.00;93551.81;648876;216;31575;-78
2022/04/24 05:22:16;;;;;;;4.60;3.30;;;8.20;1.40;;;9.18;100.00;93553.61;647378;216;31658;-74
2022/04/24 05:24:58;;;;;;;4.90;3.20;;;8.30;1.40;;;9.29;100.00;93555.02;617730;226;31930;-73
2022/04/24 05:27:40;;;;;;;4.07;3.67;;;8.20;1.40;;;9.26;100.00;93563.47;646381;216;31584;-73
2022/04/24 05:30:21;;;;;;;4.30;3.10;;;8.30;1.40;;;9.38;100.00;93570.02;646946;216;31570;-76
2022/04/24 05:35:51;;;;;;;3.58;3.00;;;8.50;1.40;;;9.56;100.00;93566.56;645930;216;32319;-74
2022/04/24 05:38:32;;;;;;;5.37;2.90;;;8.50;1.40;;;9.59;100.00;93575.27;645466;216;31649;-74
2022/04/24 05:41:14;;;;;;;3.20;2.90;;;8.50;1.40;;;9.42;100.00;93593.00;646970;216;31549;-74
2022/04/24 05:43:56;;;;;;;5.40;3.63;;;8.60;1.40;;;9.36;100.00;93602.58;646490;212;31602;-74
2022/04/24 05:46:38;;;;;;;2.90;2.12;;;8.50;1.40;;;9.22;100.00;93609.84;620438;222;31924;-73
2022/04/24 05:49:20;;;;;;;4.80;3.47;;;8.50;1.40;;;9.24;100.00;93610.95;647462;212;31552;-73
2022/04/24 05:52:01;;;;;;;5.13;3.40;;;8.40;1.40;;;9.40;100.00;93616.59;646053;216;31611;-72
2022/04/24 05:54:43;;;;;;;4.50;4.10;;;8.50;1.40;;;9.50;100.00;93618.27;645429;216;31545;-73
2022/04/24 05:57:25;;;;;;;2.60;2.40;;;8.60;1.40;;;9.59;100.00;93616.98;645861;216;43063;-73
2022/04/24 06:00:09;;;;;;;5.00;2.22;;;8.60;1.40;;;9.71;100.00;93611.88;646344;216;32186;-74
2022/04/24 06:02:51;;;;;;;4.28;3.72;;;8.80;1.40;;;9.62;100.00;93612.86;646770;216;31592;-72
2022/04/24 06:05:32;;;;;;;4.10;2.37;;;8.80;1.40;;;9.43;100.00;93615.59;646488;216;32115;-73
2022/04/24 06:08:14;;;;;;;2.77;1.83;;;8.80;1.40;;;9.37;100.00;93616.09;641666;216;32521;-73
2022/04/24 06:10:58;;;;;;;4.53;2.47;;;8.80;1.40;;;9.49;100.00;93625.61;645060;212;31576;-73
2022/04/24 06:13:40;;;;;;;3.17;2.43;;;8.80;1.40;;;9.64;100.00;93624.92;619851;226;31899;-73
2022/04/24 06:16:25;;;;;;;2.53;2.30;;;8.90;1.40;;;9.56;100.00;93628.41;646454;216;31593;-74
2022/04/24 06:19:06;;;;;;;2.03;1.90;;;9.00;1.40;;;9.70;100.00;93629.36;645868;216;31842;-72
2022/04/24 06:21:48;;;;;;;3.33;2.42;;;9.10;1.40;;;9.64;100.00;93628.89;648718;212;31948;-73
2022/04/24 06:24:30;;;;;;;2.92;2.03;;;9.00;1.40;;;9.69;100.00;93627.81;645912;213;31600;-73
2022/04/24 06:27:11;;;;;;;2.93;2.07;;;9.10;1.40;;;9.70;100.00;93627.38;645201;212;31557;-72
2022/04/24 06:29:56;;;;;;;3.30;1.50;;;9.20;1.40;;;9.70;100.00;93627.05;619252;222;31952;-73
2022/04/24 06:32:39;;;;;;;1.87;1.47;;;9.20;1.40;;;9.76;100.00;93631.30;645964;216;31625;-72
2022/04/24 06:35:51;;;;;;;1.90;0.93;;;9.40;1.40;;;9.76;100.00;93618.39;645983;216;31966;-73
2022/04/24 06:38:32;;;;;;;2.08;1.27;;;9.40;1.40;;;9.75;100.00;93632.11;647324;216;34518;-73
2022/04/24 06:41:16;;;;;;;0.70;0.50;;;9.50;1.40;;;9.77;100.00;93638.98;646962;216;32134;-74
2022/04/24 06:43:58;;;;;;;0.40;0.37;;;9.50;1.40;;;9.82;100.00;93639.13;645807;216;42719;-72
2022/04/24 06:46:43;;;;;;;0.73;0.60;;;9.50;1.40;;;9.90;100.00;93645.80;645488;216;31561;-72
2022/04/24 06:51:58;;;;;;;1.50;1.00;;;9.50;1.40;;;10.20;100.00;93658.23;641930;217;31639;-73
2022/04/24 06:54:44;;;;;;;1.30;1.17;;;9.70;1.40;;;10.30;100.00;93660.23;645217;216;31567;-73
2022/04/24 06:57:25;;;;;;;0.90;0.77;;;9.70;1.40;;;10.35;100.00;93661.59;645663;216;31865;-73
2022/04/24 07:00:08;;;;;;;0.50;0.50;;;9.70;1.40;;;10.35;100.00;93659.87;646584;216;31517;-73
2022/04/24 07:02:50;;;;;;;0.80;0.50;;;9.80;1.40;;;10.52;100.00;93658.82;618236;222;31831;-75
2022/04/24 07:05:35;;;;;;;0.90;0.50;;;10.00;1.40;;;10.79;100.00;93660.44;646403;212;31544;-73
2022/04/24 07:08:17;;;;;;;0.70;0.40;;;10.20;1.40;;;10.98;100.00;93661.51;643488;212;31660;-73
2022/04/24 07:10:58;;;;;;;0.80;0.50;;;10.40;1.40;;;11.08;100.00;93661.23;646766;216;31529;-74
2022/04/24 07:13:41;;;;;;;0.90;0.30;;;10.60;1.40;;;11.65;100.00;93674.64;645604;216;31483;-76
2022/04/24 07:16:21;;;;;;;1.07;0.60;;;11.10;1.40;;;11.80;100.00;93661.55;646432;216;42102;-74
2022/04/24 07:19:03;;;;;;;0.50;0.30;;;11.10;1.40;;;11.87;100.00;93667.61;618795;226;42472;-73
2022/04/24 07:21:48;;;;;;;0.70;0.50;;;11.00;1.40;;;12.02;100.00;93669.88;646982;212;42444;-73
2022/04/24 07:24:26;;;;;;;0.50;0.40;;;11.20;1.40;;;12.11;100.00;93672.00;647705;216;31490;-73
2022/04/24 07:27:11;;;;;;;0.40;0.20;;;11.30;1.40;;;12.06;100.00;93668.28;647384;212;32077;-73
2022/04/24 07:29:53;;;;;;;0.40;0.40;;;11.30;1.40;;;12.23;100.00;93674.12;647036;213;31821;-73
2022/04/24 07:32:39;;;;;;;0.50;0.40;;;11.40;1.40;;;11.93;100.00;93676.17;646094;216;31516;-73
2022/04/24 07:35:50;;;;;;;0.68;0.30;;;11.20;1.40;;;11.99;100.00;93680.84;618338;226;32423;-72
2022/04/24 07:38:32;;;;;;;0.73;0.40;;;11.30;1.40;;;12.18;100.00;93689.54;646577;216;42102;-74
2022/04/24 07:41:14;;;;;;;0.40;0.30;;;11.40;1.40;;;12.12;100.00;93690.90;646570;216;31482;-72
2022/04/24 07:43:56;;;;;;;0.40;0.20;;;11.40;1.40;;;12.17;100.00;93698.59;646206;216;42340;-73
2022/04/24 07:46:37;;;;;;;0.40;0.30;;;11.50;1.40;;;12.20;100.00;93713.50;645915;216;31547;-73
2022/04/24 07:49:19;;;;;;;0.40;0.20;;;11.40;1.40;;;12.31;100.00;93708.97;647060;216;42132;-73
2022/04/24 07:52:04;;;;;;;0.50;0.30;;;11.80;1.40;;;12.56;100.00;93713.51;646917;216;33285;-73
2022/04/24 07:54:46;;;;;;;0.90;0.50;;;11.90;1.40;;;12.52;100.00;93724.53;647406;216;31447;-73
2022/04/24 07:57:27;;;;;;;0.57;0.28;;;11.90;1.40;;;12.54;100.00;93718.70;646502;216;31466;-73
2022/04/24 08:00:10;;;;;;;0.50;0.50;;;11.70;1.40;;;12.95;100.00;93724.27;646687;216;31491;-73
2022/04/24 08:02:57;;;;;;;0.40;0.20;;;12.10;1.40;;;12.85;100.00;93733.25;646612;216;31591;-73
2022/04/24 08:05:39;;;;;;;0.70;0.30;;;11.90;1.40;;;12.83;100.00;93731.71;646130;212;31508;-73
2022/04/24 08:08:21;;;;;;;0.50;0.40;;;11.80;1.40;;;12.70;100.00;93741.78;647337;216;31667;-73
2022/04/24 08:11:03;;;;;;;0.50;0.30;;;11.70;1.40;;;12.73;100.00;93744.33;647217;212;31501;-75
2022/04/24 08:13:44;;;;;;;0.50;0.40;;;11.70;1.40;;;12.74;100.00;93750.24;646439;216;32110;-73
2022/04/24 08:16:27;;;;;;;0.40;0.20;;;11.70;1.40;;;12.79;100.00;93754.99;645681;212;31661;-73
2022/04/24 08:19:08;;;;;;;0.40;0.25;;;11.80;1.40;;;12.80;100.00;93753.89;648083;212;32520;-73
2022/04/24 08:21:49;;;;;;;0.40;0.20;;;11.80;1.40;;;12.89;100.00;93751.91;646221;216;31922;-73
2022/04/24 08:24:31;;;;;;;0.40;0.20;;;11.90;1.40;;;13.11;100.00;93751.22;646657;212;31841;-73
2022/04/24 08:27:13;;;;;;;0.40;0.30;;;12.00;1.40;;;12.96;100.00;93760.94;645302;212;34441;-73
2022/04/24 08:29:55;;;;;;;0.40;0.20;;;11.90;1.40;;;12.80;100.00;93770.05;646902;212;32133;-73
2022/04/24 08:32:36;;;;;;;0.40;0.30;;;11.80;1.40;;;12.68;100.00;93770.58;646218;216;31615;-73
2022/04/24 08:35:50;;;;;;;0.40;0.20;;;11.60;1.40;;;12.66;100.00;93782.95;645348;216;32130;-73
2022/04/24 08:38:32;;;;;;;0.77;0.30;;;11.60;1.40;;;12.44;100.00;93787.64;647257;216;34000;-72
2022/04/24 08:41:14;;;;;;;0.40;0.20;;;11.40;1.40;;;12.59;100.00;93792.41;646740;216;31604;-73
2022/04/24 08:43:56;;;;;;;0.50;0.30;;;11.50;1.40;;;12.84;100.00;93799.59;646356;212;32885;-73
2022/04/24 08:46:40;;;;;;;0.50;0.40;;;11.90;1.40;;;13.06;100.00;93805.20;644880;212;31544;-73
2022/04/24 08:49:22;;;;;;;0.60;0.20;;;12.00;1.40;;;13.30;100.00;93808.23;647414;216;33109;-74
2022/04/24 08:52:04;;;;;;;0.50;0.30;;;12.10;1.40;;;13.46;100.00;93804.25;646137;212;32624;-72
2022/04/24 08:54:45;;;;;;;0.50;0.20;;;12.30;1.40;;;13.63;100.00;93805.77;646813;216;32955;-73
2022/04/24 08:57:27;;;;;;;0.40;0.20;;;12.50;1.40;;;13.53;100.00;93810.25;646992;216;42113;-73
2022/04/24 09:00:10;;;;;;;0.40;0.20;;;12.10;1.40;;;13.71;100.00;93811.02;647380;212;42106;-73
2022/04/24 09:02:51;;;;;;;0.40;0.20;;;12.50;1.40;;;13.70;99.87;93812.01;645549;216;42179;-73
2022/04/24 09:05:36;;;;;;;0.50;0.28;;;12.40;1.40;;;13.44;97.79;93821.34;646925;216;36700;-73
2022/04/24 09:08:18;;;;;;;0.60;0.30;;;12.40;1.40;;;13.47;100.00;93818.62;642529;216;31623;-73
2022/04/24 09:10:59;;;;;;;0.40;0.20;;;12.50;1.40;;;13.34;98.86;93819.39;647520;216;42124;-73
2022/04/24 09:16:34;;;;;;;0.50;0.40;;;12.60;1.40;;;14.40;100.00;93811.54;646486;216;31912;-73
2022/04/24 09:19:21;;;;;;;0.90;0.30;;;13.10;1.40;;;14.40;96.13;93813.46;646499;212;31577;-73
2022/04/24 09:22:05;;;;;;;0.50;0.30;;;13.00;1.40;;;15.01;94.71;93812.14;645599;216;42235;-73
2022/04/24 09:24:49;;;;;;;0.50;0.30;;;13.50;1.40;;;14.96;89.51;93814.53;648061;212;31743;-73
2022/04/24 09:27:30;;;;;;;1.10;0.30;;;13.20;1.40;;;14.10;89.98;93813.92;614789;227;31815;-73
2022/04/24 09:30:12;;;;;;;0.40;0.20;;;12.50;1.40;;;14.21;90.24;93815.23;646422;216;31494;-73
2022/04/24 09:32:55;;;;;;;0.40;0.20;;;12.80;1.40;;;14.36;94.59;93814.03;646832;216;31804;-73
2022/04/24 09:35:53;;;;;;;1.10;0.50;;;12.80;1.40;;;13.95;92.19;93814.08;646108;212;32135;-73
2022/04/24 09:38:43;;;;;;;0.40;0.30;;;12.60;1.40;;;14.12;90.20;93813.38;646574;212;32133;-72
2022/04/24 09:41:25;;;;;;;0.60;0.20;;;12.80;1.40;;;13.99;90.36;93820.72;647984;212;32138;-74
2022/04/24 09:44:12;;;;;;;0.47;0.30;;;12.70;1.40;;;13.93;93.86;93822.98;647488;216;31900;-72
2022/04/24 09:46:54;;;;;;;0.40;0.22;;;12.70;1.40;;;14.36;92.24;93821.84;645834;212;31515;-74
2022/04/24 09:49:37;;;;;;;0.40;0.20;;;13.20;1.40;;;14.02;94.72;93825.31;646403;216;31469;-73
2022/04/24 09:52:18;;;;;;;0.40;0.20;;;12.60;1.40;;;13.86;89.01;93822.22;646360;216;31465;-73
2022/04/24 09:54:59;;;;;;;0.40;0.30;;;12.60;1.40;;;14.18;90.07;93827.53;647063;216;31498;-73
2022/04/24 09:57:41;;;;;;;0.40;0.30;;;13.00;1.40;;;14.44;88.06;93829.56;645102;216;31627;-73
2022/04/24 10:00:23;;;;;;;0.40;0.20;;;13.00;1.40;;;14.77;86.67;93826.25;647322;216;31521;-72
2022/04/24 10:03:04;;;;;;;0.40;0.20;;;13.20;1.40;;;14.89;87.99;93831.27;646341;216;31477;-73
2022/04/24 10:05:47;;;;;;;1.40;0.30;;;13.20;1.40;;;14.59;85.13;93830.30;644974;216;32428;-73
2022/04/24 10:08:28;;;;;;;0.40;0.30;;;13.10;1.40;;;14.86;83.56;93829.31;641537;212;32677;-73
2022/04/24 10:11:09;;;;;;;0.40;0.20;;;13.40;1.40;;;15.13;83.35;93820.86;646502;216;31662;-73
2022/04/24 10:13:51;;;;;;;0.40;0.20;;;13.60;1.40;;;15.19;82.23;93824.02;645804;216;31491;-73
2022/04/24 10:16:56;;;;;;;0.40;0.20;;;13.40;1.40;;;14.88;84.96;93824.86;645747;216;31496;-73
2022/04/24 10:19:43;;;;;;;0.90;0.20;;;13.40;1.40;;;14.96;83.22;93820.17;646142;216;31477;-73
2022/04/24 10:22:36;;;;;;;0.50;0.30;;;13.40;1.40;;;14.93;83.67;93826.81;646887;216;42137;-74
2022/04/24 10:25:18;;;;;;;0.50;0.30;;;13.40;1.40;;;14.19;83.77;93830.42;646469;212;31484;-73
2022/04/24 10:28:16;;;;;;;0.40;0.20;;;12.80;1.40;;;14.02;85.59;93827.02;619493;222;31810;-73
2022/04/24 10:31:00;;;;;;;0.50;0.30;;;12.50;1.40;;;13.41;86.94;93831.68;642168;216;31527;-73
2022/04/24 10:35:55;;;;;;;0.40;0.30;;;12.20;1.40;;;13.22;88.37;93833.27;647245;212;31521;-73
2022/04/24 10:38:49;;;;;;;0.82;0.30;;;12.10;1.40;;;13.16;86.24;93833.56;647555;216;31468;-72
2022/04/24 10:41:30;;;;;;;0.50;0.25;;;11.90;1.40;;;12.91;89.35;93828.86;646309;216;42114;-73
2022/04/24 10:44:15;;;;;;;0.40;0.20;;;11.80;1.40;;;12.93;91.98;93832.31;646247;216;33326;-73
2022/04/24 10:46:57;;;;;;;0.40;0.20;;;12.00;1.40;;;13.06;89.30;93837.28;647405;212;31483;-73
2022/04/24 10:49:37;;;;;;;0.40;0.20;;;12.00;1.40;;;12.98;86.29;93835.44;648144;216;31472;-73
2022/04/24 10:52:19;;;;;;;0.40;0.30;;;11.90;1.40;;;12.90;88.79;93840.08;646087;216;33597;-73
2022/04/24 10:55:00;;;;;;;0.60;0.30;;;11.60;1.40;;;12.90;88.15;93838.05;645884;216;32432;-73
2022/04/24 10:57:44;;;;;;;1.00;0.30;;;11.80;1.40;;;12.88;88.26;93841.07;646986;212;31558;-74
2022/04/24 11:00:31;;;;;;;0.60;0.30;;;11.80;1.40;;;12.95;87.12;93847.91;646232;216;31527;-73
2022/04/24 11:03:13;;;;;;;0.40;0.20;;;11.80;1.40;;;12.90;88.16;93847.10;646395;216;31976;-73
2022/04/24 11:05:53;;;;;;;0.40;0.30;;;11.90;1.40;;;13.01;87.91;93849.67;647021;216;32999;-73
2022/04/24 11:08:41;;;;;;;0.40;0.20;;;12.10;1.40;;;13.24;86.86;93848.28;639325;212;31661;-72
2022/04/24 11:11:22;;;;;;;0.40;0.20;;;12.20;1.40;;;12.92;87.68;93856.36;647340;216;31521;-73
2022/04/24 11:14:04;;;;;;;0.40;0.20;;;11.80;1.40;;;13.04;87.50;93860.02;646983;212;31459;-73
2022/04/24 11:16:50;;;;;;;0.60;0.30;;;12.10;1.40;;;12.92;91.08;93863.30;647569;216;32044;-73
2022/04/24 11:19:35;;;;;;;0.70;0.20;;;11.90;1.40;;;12.95;89.46;93870.79;646593;216;31518;-74
2022/04/24 11:22:15;;;;;;;0.40;0.20;;;11.90;1.40;;;13.13;92.21;93870.43;647658;212;32177;-72
2022/04/24 11:24:57;;;;;;;0.40;0.20;;;12.20;1.40;;;13.28;87.55;93867.36;646034;216;33123;-73
2022/04/24 11:27:39;;;;;;;0.40;0.20;;;12.10;1.40;;;13.54;88.09;93871.47;645491;216;36099;-72
2022/04/24 11:30:20;;;;;;;0.40;0.20;;;12.20;1.40;;;13.48;85.36;93871.30;646911;216;42230;-73
2022/04/24 11:33:05;;;;;;;0.40;0.20;;;12.10;1.40;;;13.33;89.33;93879.47;646211;212;39101;-73
2022/04/24 11:36:17;;;;;;;0.40;0.20;;;12.00;1.40;;;13.21;88.92;93881.03;647127;216;31595;-73
2022/04/24 11:39:00;;;;;;;0.40;0.20;;;12.00;1.40;;;13.02;91.58;93881.61;645573;216;35700;-73
2022/04/24 11:41:43;;;;;;;0.40;0.20;;;11.90;1.40;;;13.58;89.33;93885.45;646161;212;31650;-73
2022/04/24 11:52:48;;;;;;;0.40;0.27;;;12.40;1.40;;;13.63;89.36;93884.88;647656;216;33825;-72
2022/04/24 11:58:23;;;;;;;0.57;0.22;;;12.50;1.40;;;13.65;86.55;93889.33;646310;216;43637;-74
2022/04/24 12:01:04;;;;;;;0.40;0.20;;;12.40;1.40;;;13.54;86.76;93888.46;646535;216;31507;-73
2022/04/24 12:03:46;;;;;;;0.50;0.30;;;12.20;1.40;;;13.47;86.53;93896.05;646382;212;38417;-73
2022/04/24 12:06:27;;;;;;;0.50;0.30;;;12.10;1.40;;;13.42;89.33;93894.44;646976;212;31501;-73
2022/04/24 12:09:12;;;;;;;1.77;0.40;;;12.00;1.40;;;13.24;90.54;93894.94;636517;216;31628;-73
2022/04/24 12:12:08;;;;;;;0.40;0.20;;;12.10;1.40;;;13.45;89.25;93892.55;646456;212;42112;-72
2022/04/24 12:14:51;;;;;;;0.40;0.30;;;12.10;1.40;;;13.13;90.84;93894.19;646775;213;42114;-73